createdAt,value
2022-10-06T00:02:22.068Z,90.59
2022-10-06T00:04:48.682Z,90.28
2022-10-06T00:07:16.140Z,90.30
2022-10-06T00:09:42.775Z,90.51
2022-10-06T00:12:09.824Z,90.50
2022-10-06T00:14:36.889Z,90.63
2022-10-06T00:17:03.994Z,90.69
2022-10-06T00:19:30.502Z,90.67
2022-10-06T00:21:57.009Z,90.80
2022-10-06T00:24:23.488Z,90.39
2022-10-06T00:26:49.919Z,90.33
2022-10-06T00:29:16.388Z,90.22
2022-10-06T00:31:43.734Z,89.97
2022-10-06T00:34:10.281Z,89.79
2022-10-06T00:36:37.293Z,89.61
2022-10-06T00:39:03.863Z,89.62
2022-10-06T00:41:30.426Z,89.34
2022-10-06T00:43:58.702Z,89.57
2022-10-06T00:46:45.238Z,89.44
2022-10-06T00:49:12.133Z,89.30
2022-10-06T00:51:42.290Z,89.65
2022-10-06T00:54:09.153Z,89.35
2022-10-06T00:56:38.229Z,89.53
2022-10-06T00:59:08.696Z,89.41
2022-10-06T01:01:36.506Z,89.35
2022-10-06T01:04:09.508Z,89.56
2022-10-06T01:06:49.887Z,89.41
2022-10-06T01:09:18.361Z,89.50
2022-10-06T01:11:48.165Z,89.40
2022-10-06T01:14:15.094Z,89.75
2022-10-06T01:16:45.823Z,90.03
2022-10-06T01:19:31.802Z,89.90
2022-10-06T01:22:01.859Z,89.85
2022-10-06T01:24:28.663Z,89.66
2022-10-06T01:26:57.144Z,89.65
2022-10-06T01:29:24.725Z,89.93
2022-10-06T01:31:51.334Z,89.79
2022-10-06T01:34:17.869Z,89.78
2022-10-06T01:36:44.388Z,89.82
2022-10-06T01:39:10.883Z,89.80
2022-10-06T01:41:37.348Z,89.86
2022-10-06T01:44:04.060Z,89.92
2022-10-06T01:46:30.936Z,89.69
2022-10-06T01:48:57.548Z,89.87
2022-10-06T01:51:24.094Z,89.89
2022-10-06T01:53:50.597Z,89.50
2022-10-06T01:56:17.260Z,89.68
2022-10-06T01:58:43.773Z,89.82
2022-10-06T02:01:10.425Z,89.62
2022-10-06T02:03:38.910Z,89.58
2022-10-06T02:06:06.502Z,89.58
2022-10-06T02:08:33.296Z,89.67
2022-10-06T02:11:05.329Z,89.88
2022-10-06T02:13:32.101Z,89.49
2022-10-06T02:15:58.615Z,89.50
2022-10-06T02:18:25.652Z,89.27
2022-10-06T02:20:52.500Z,89.58
2022-10-06T02:23:18.992Z,89.51
2022-10-06T02:25:45.545Z,89.46
2022-10-06T02:28:12.093Z,89.68
2022-10-06T02:30:38.650Z,89.39
2022-10-06T02:33:05.244Z,89.69
2022-10-06T02:35:31.737Z,89.65
2022-10-06T02:37:58.342Z,89.68
2022-10-06T02:40:24.884Z,89.76
2022-10-06T02:42:51.394Z,89.78
2022-10-06T02:45:17.944Z,89.97
2022-10-06T02:47:44.492Z,89.68
2022-10-06T02:50:10.991Z,89.79
2022-10-06T02:52:41.198Z,89.76
2022-10-06T02:55:08.735Z,89.56
2022-10-06T02:57:35.200Z,89.50
2022-10-06T03:00:01.733Z,89.34
2022-10-06T03:02:30.832Z,89.69
2022-10-06T03:04:57.434Z,89.36
2022-10-06T03:07:24.130Z,89.40
2022-10-06T03:09:50.654Z,89.63
2022-10-06T03:12:17.161Z,89.68
2022-10-06T03:14:43.656Z,89.84
2022-10-06T03:17:10.116Z,89.82
2022-10-06T03:19:37.442Z,90.14
2022-10-06T03:22:05.387Z,89.78
2022-10-06T03:24:32.516Z,89.98
2022-10-06T03:26:59.239Z,89.96
2022-10-06T03:29:25.860Z,89.69
2022-10-06T03:31:52.445Z,90.03
2022-10-06T03:34:19.112Z,89.70
2022-10-06T03:36:45.600Z,89.98
2022-10-06T03:39:12.030Z,90.04
2022-10-06T03:41:38.978Z,89.97
2022-10-06T03:44:06.170Z,89.79
2022-10-06T03:46:35.155Z,89.86
2022-10-06T03:49:01.853Z,89.96
2022-10-06T03:51:39.875Z,90.03
2022-10-06T03:54:10.495Z,89.82
2022-10-06T03:56:39.639Z,90.05
2022-10-06T03:59:08.854Z,90.06
2022-10-06T04:01:38.319Z,89.87
2022-10-06T04:04:06.009Z,90.39
2022-10-06T04:06:35.169Z,90.03
2022-10-06T04:09:04.609Z,90.24
2022-10-06T04:11:34.422Z,90.18
2022-10-06T04:14:03.520Z,90.44
2022-10-06T04:16:32.663Z,90.58
2022-10-06T04:19:01.208Z,90.61
2022-10-06T04:21:29.670Z,90.32
2022-10-06T04:23:57.623Z,90.24
2022-10-06T04:26:30.641Z,90.44
2022-10-06T04:28:57.637Z,90.36
2022-10-06T04:31:26.810Z,90.27
2022-10-06T04:33:55.267Z,90.17
2022-10-06T04:36:27.162Z,90.67
2022-10-06T04:38:58.950Z,90.60
2022-10-06T04:41:31.961Z,90.62
2022-10-06T04:43:59.410Z,90.72
2022-10-06T04:46:44.205Z,90.49
2022-10-06T04:49:17.876Z,90.50
2022-10-06T04:51:46.389Z,90.93
2022-10-06T04:54:13.048Z,90.97
2022-10-06T04:56:39.580Z,91.04
2022-10-06T04:59:06.104Z,90.91
2022-10-06T05:01:34.905Z,90.58
2022-10-06T05:04:03.122Z,90.87
2022-10-06T05:06:32.231Z,91.04
2022-10-06T05:09:01.225Z,91.11
2022-10-06T05:11:28.227Z,91.12
2022-10-06T05:13:56.885Z,90.96
2022-10-06T05:16:25.199Z,91.10
2022-10-06T05:18:51.961Z,91.30
2022-10-06T05:21:27.782Z,91.22
2022-10-06T05:23:54.362Z,91.51
2022-10-06T05:26:23.496Z,91.35
2022-10-06T05:28:50.331Z,91.29
2022-10-06T05:31:18.403Z,91.27
2022-10-06T05:33:45.276Z,91.36
2022-10-06T05:36:17.631Z,91.25
2022-10-06T05:38:45.282Z,91.39
2022-10-06T05:41:14.438Z,91.40
2022-10-06T05:43:42.185Z,91.29
2022-10-06T05:46:17.285Z,91.57
2022-10-06T05:48:48.119Z,91.57
2022-10-06T05:51:15.297Z,91.80
2022-10-06T05:53:43.084Z,91.71
2022-10-06T05:56:17.457Z,91.67
2022-10-06T05:58:45.962Z,92.10
2022-10-06T06:01:19.628Z,92.07
2022-10-06T06:03:49.840Z,92.04
2022-10-06T06:06:22.239Z,92.10
2022-10-06T06:08:53.312Z,91.99
2022-10-06T06:11:25.350Z,92.16
2022-10-06T06:14:44.236Z,92.18
2022-10-06T06:17:11.548Z,92.24
2022-10-06T06:19:38.022Z,92.21
2022-10-06T06:22:04.486Z,92.40
2022-10-06T06:24:30.966Z,92.42
2022-10-06T06:26:57.443Z,92.31
2022-10-06T06:29:24.064Z,92.22
2022-10-06T06:31:51.075Z,92.26
2022-10-06T06:34:17.639Z,92.69
2022-10-06T06:36:46.963Z,92.42
2022-10-06T06:39:15.173Z,92.31
2022-10-06T06:41:45.299Z,92.57
2022-10-06T06:44:12.419Z,92.80
2022-10-06T06:46:40.342Z,92.52
2022-10-06T06:49:07.407Z,92.48
2022-10-06T06:51:35.827Z,92.55
2022-10-06T06:54:05.123Z,92.84
2022-10-06T06:56:34.855Z,92.99
2022-10-06T06:59:10.472Z,92.53
2022-10-06T07:01:38.974Z,92.90
2022-10-06T07:04:06.264Z,93.05
2022-10-06T07:06:32.844Z,92.98
2022-10-06T07:09:00.545Z,92.97
2022-10-06T07:11:30.366Z,92.93
2022-10-06T07:14:01.252Z,93.01
2022-10-06T07:16:48.403Z,93.32
2022-10-06T07:19:34.421Z,93.15
2022-10-06T07:22:23.831Z,93.31
2022-10-06T07:25:08.336Z,93.38
2022-10-06T07:27:46.508Z,93.20
2022-10-06T07:30:19.585Z,93.19
2022-10-06T07:32:50.960Z,93.28
2022-10-06T07:35:20.345Z,93.28
2022-10-06T07:37:47.825Z,93.12
2022-10-06T07:40:14.975Z,93.04
2022-10-06T07:42:54.075Z,92.89
2022-10-06T07:45:45.135Z,93.07
2022-10-06T07:48:14.806Z,93.31
2022-10-06T07:50:42.881Z,92.65
2022-10-06T07:53:09.530Z,92.46
2022-10-06T07:55:39.783Z,91.67
2022-10-06T07:58:17.847Z,91.72
2022-10-06T08:00:46.131Z,91.33
2022-10-06T08:03:18.068Z,91.52
2022-10-06T08:05:50.183Z,90.75
2022-10-06T08:08:17.564Z,90.74
2022-10-06T08:10:51.687Z,90.74
2022-10-06T08:13:18.249Z,90.79
2022-10-06T08:15:44.770Z,90.30
2022-10-06T08:18:27.243Z,89.94
2022-10-06T08:20:58.753Z,89.55
2022-10-06T08:23:25.942Z,89.28
2022-10-06T08:25:54.349Z,89.20
2022-10-06T08:28:22.269Z,88.73
2022-10-06T08:30:51.428Z,88.63
2022-10-06T08:33:21.268Z,88.21
2022-10-06T08:35:48.165Z,88.12
2022-10-06T08:38:14.751Z,87.78
2022-10-06T08:40:43.847Z,87.90
2022-10-06T08:43:18.975Z,86.84
2022-10-06T08:45:47.604Z,86.82
2022-10-06T08:48:19.854Z,86.68
2022-10-06T08:51:05.044Z,86.85
2022-10-06T08:53:46.995Z,86.31
2022-10-06T08:56:19.662Z,86.25
2022-10-06T08:58:52.688Z,85.71
2022-10-06T09:01:26.630Z,85.36
2022-10-06T09:03:58.392Z,84.82
2022-10-06T09:06:43.436Z,84.82
2022-10-06T09:09:25.255Z,84.85
2022-10-06T09:11:54.710Z,84.72
2022-10-06T09:14:42.419Z,84.59
2022-10-06T09:17:18.990Z,84.60
2022-10-06T09:19:51.333Z,83.60
2022-10-06T09:22:23.304Z,83.28
2022-10-06T09:24:57.420Z,82.78
2022-10-06T09:27:33.758Z,82.84
2022-10-06T09:30:01.590Z,81.89
2022-10-06T09:32:30.727Z,81.81
2022-10-06T09:35:02.678Z,82.03
2022-10-06T09:37:29.179Z,81.12
2022-10-06T09:39:56.059Z,81.37
2022-10-06T09:42:29.526Z,80.90
2022-10-06T09:45:04.002Z,79.93
2022-10-06T09:47:37.056Z,79.85
2022-10-06T09:50:12.655Z,78.27
2022-10-06T09:52:40.806Z,77.38
2022-10-06T09:55:14.963Z,77.20
2022-10-06T09:58:25.850Z,77.62
2022-10-06T10:00:55.933Z,77.76
2022-10-06T10:03:26.100Z,75.63
2022-10-06T10:05:54.955Z,75.14
2022-10-06T10:08:24.596Z,75.29
2022-10-06T10:11:32.139Z,75.04
2022-10-06T10:13:59.802Z,75.29
2022-10-06T10:16:34.513Z,75.01
2022-10-06T10:19:03.240Z,74.82
2022-10-06T10:21:33.618Z,75.09
2022-10-06T10:24:03.286Z,74.50
2022-10-06T10:26:57.137Z,73.55
2022-10-06T10:29:33.037Z,73.08
2022-10-06T10:32:15.411Z,72.61
2022-10-06T10:34:42.781Z,71.98
2022-10-06T10:37:14.017Z,71.21
2022-10-06T10:39:50.112Z,68.92
2022-10-06T10:42:39.712Z,68.65
2022-10-06T10:45:34.428Z,67.97
2022-10-06T10:48:05.647Z,67.59
2022-10-06T10:50:39.226Z,66.42
2022-10-06T10:53:22.587Z,67.66
2022-10-06T10:55:51.071Z,64.66
2022-10-06T10:58:33.170Z,64.96
2022-10-06T11:01:29.634Z,64.97
2022-10-06T11:03:58.379Z,65.42
2022-10-06T11:06:55.671Z,65.82
2022-10-06T11:09:29.018Z,65.86
2022-10-06T11:12:34.303Z,64.79
2022-10-06T11:15:17.041Z,63.42
2022-10-06T11:17:50.324Z,63.77
2022-10-06T11:20:44.118Z,64.50
2022-10-06T11:23:22.626Z,64.75
2022-10-06T11:26:09.799Z,65.16
2022-10-06T11:28:55.629Z,65.56
2022-10-06T11:31:42.402Z,65.69
2022-10-06T11:34:10.635Z,64.71
2022-10-06T11:36:47.970Z,62.19
2022-10-06T11:39:22.513Z,63.46
2022-10-06T11:41:57.128Z,61.11
2022-10-06T11:44:31.465Z,63.19
2022-10-06T11:47:02.558Z,62.44
2022-10-06T11:49:28.963Z,62.02
2022-10-06T11:52:15.646Z,60.59
2022-10-06T11:54:48.318Z,60.76
2022-10-06T11:57:30.206Z,60.38
2022-10-06T12:00:17.768Z,60.84
2022-10-06T12:02:46.964Z,59.38
2022-10-06T12:05:45.864Z,59.40
2022-10-06T12:08:00.632Z,58.67
2022-10-06T12:10:30.163Z,57.84
2022-10-06T12:14:26.278Z,58.62
2022-10-06T12:19:54.103Z,58.84
2022-10-06T12:22:37.427Z,57.92
2022-10-06T12:25:16.410Z,58.24
2022-10-06T12:28:18.461Z,57.52
2022-10-06T12:31:22.887Z,57.86
2022-10-06T12:33:50.477Z,55.62
2022-10-06T12:36:26.844Z,56.50
2022-10-06T12:39:20.384Z,55.25
2022-10-06T12:42:00.833Z,55.72
2022-10-06T12:44:37.484Z,57.19
2022-10-06T12:47:10.199Z,57.28
2022-10-06T12:49:46.081Z,57.78
2022-10-06T12:52:46.059Z,57.90
2022-10-06T12:55:21.372Z,58.30
2022-10-06T12:57:52.366Z,58.03
2022-10-06T13:02:54.381Z,56.70
2022-10-06T13:05:20.991Z,56.17
2022-10-06T13:08:02.711Z,57.92
2022-10-06T13:10:30.698Z,57.37
2022-10-06T13:12:58.011Z,57.01
2022-10-06T13:15:29.574Z,55.48
2022-10-06T13:18:08.176Z,55.57
2022-10-06T13:20:36.611Z,54.37
2022-10-06T13:23:23.397Z,55.17
2022-10-06T13:26:02.112Z,55.91
2022-10-06T13:28:43.880Z,55.60
2022-10-06T13:31:34.908Z,55.89
2022-10-06T13:34:05.789Z,56.46
2022-10-06T13:36:41.403Z,56.38
2022-10-06T13:39:18.006Z,55.41
2022-10-06T13:41:51.707Z,54.88
2022-10-06T13:44:18.775Z,55.10
2022-10-06T13:46:54.208Z,55.74
2022-10-06T13:49:40.783Z,54.01
2022-10-06T13:52:16.484Z,55.90
2022-10-06T13:54:58.056Z,55.66
2022-10-06T13:58:08.506Z,55.17
2022-10-06T14:00:58.026Z,55.85
2022-10-06T14:06:19.012Z,55.93
2022-10-06T14:08:52.452Z,53.55
2022-10-06T14:11:28.098Z,54.18
2022-10-06T14:13:56.325Z,54.44
2022-10-06T14:16:27.776Z,54.84
2022-10-06T14:19:05.496Z,54.52
2022-10-06T14:21:31.980Z,54.32
2022-10-06T14:23:59.974Z,53.89
2022-10-06T14:26:31.098Z,54.74
2022-10-06T14:28:58.947Z,53.81
2022-10-06T14:31:27.760Z,54.05
2022-10-06T14:33:56.953Z,54.20
2022-10-06T14:36:25.765Z,53.80
2022-10-06T14:38:52.292Z,53.89
2022-10-06T14:41:19.905Z,53.79
2022-10-06T14:43:47.688Z,54.55
2022-10-06T14:46:15.569Z,55.00
2022-10-06T14:48:42.204Z,54.74
2022-10-06T14:51:09.634Z,55.12
2022-10-06T14:53:39.121Z,55.24
2022-10-06T14:56:09.114Z,55.26
2022-10-06T14:58:40.220Z,55.45
2022-10-06T15:01:07.747Z,56.78
2022-10-06T15:03:36.983Z,56.71
2022-10-06T15:06:27.543Z,56.32
2022-10-06T15:08:56.535Z,55.84
2022-10-06T15:11:25.562Z,54.96
2022-10-06T15:13:54.872Z,56.47
2022-10-06T15:16:24.634Z,55.64
2022-10-06T15:18:52.153Z,57.60
2022-10-06T15:21:19.583Z,56.47
2022-10-06T15:23:48.037Z,57.09
2022-10-06T15:26:33.131Z,57.62
2022-10-06T15:29:05.829Z,57.52
2022-10-06T15:31:38.288Z,57.27
2022-10-06T15:34:07.270Z,58.39
2022-10-06T15:36:39.469Z,56.58
2022-10-06T15:39:09.013Z,56.79
2022-10-06T15:41:36.844Z,55.85
2022-10-06T15:44:05.047Z,56.97
2022-10-06T15:46:37.206Z,56.31
2022-10-06T15:49:06.607Z,56.03
2022-10-06T15:51:38.425Z,56.15
2022-10-06T15:54:05.489Z,55.82
2022-10-06T15:56:32.135Z,58.58
2022-10-06T15:58:59.663Z,56.84
2022-10-06T16:01:28.176Z,56.35
2022-10-06T16:03:54.863Z,56.65
2022-10-06T16:06:30.262Z,56.79
2022-10-06T16:08:56.792Z,56.95
2022-10-06T16:11:23.324Z,56.99
2022-10-06T16:13:51.775Z,57.89
2022-10-06T16:16:18.303Z,58.00
2022-10-06T16:18:44.865Z,58.50
2022-10-06T16:21:11.381Z,58.51
2022-10-06T16:23:37.829Z,58.36
2022-10-06T16:26:04.517Z,59.21
2022-10-06T16:28:31.053Z,59.21
2022-10-06T16:30:57.697Z,60.02
2022-10-06T16:33:24.275Z,59.89
2022-10-06T16:35:58.578Z,60.21
2022-10-06T16:38:25.587Z,60.37
2022-10-06T16:41:01.715Z,60.67
2022-10-06T16:43:32.249Z,61.23
2022-10-06T16:46:02.285Z,61.45
2022-10-06T16:48:34.793Z,62.20
2022-10-06T16:51:03.172Z,62.67
2022-10-06T16:53:38.907Z,62.96
2022-10-06T16:56:07.254Z,63.90
2022-10-06T16:58:39.144Z,63.95
2022-10-06T17:01:06.279Z,64.46
2022-10-06T17:03:33.270Z,65.42
2022-10-06T17:06:16.976Z,65.66
2022-10-06T17:08:44.784Z,66.40
2022-10-06T17:11:15.866Z,67.06
2022-10-06T17:13:47.412Z,67.40
2022-10-06T17:16:17.337Z,67.93
2022-10-06T17:18:47.714Z,68.36
2022-10-06T17:21:39.576Z,68.72
2022-10-06T17:24:03.210Z,69.26
2022-10-06T17:26:32.372Z,69.78
2022-10-06T17:29:02.133Z,70.20
2022-10-06T17:31:35.762Z,70.62
2022-10-06T17:34:04.899Z,70.91
2022-10-06T17:36:31.650Z,71.18
2022-10-06T17:39:03.828Z,71.34
2022-10-06T17:41:33.357Z,71.33
2022-10-06T17:44:06.364Z,70.80
2022-10-06T17:46:37.579Z,71.09
2022-10-06T17:49:07.566Z,70.94
2022-10-06T17:51:35.901Z,71.08
2022-10-06T17:54:05.370Z,71.41
2022-10-06T17:56:34.567Z,71.45
2022-10-06T17:59:05.309Z,72.03
2022-10-06T18:01:33.386Z,72.55
2022-10-06T18:04:03.336Z,72.74
2022-10-06T18:06:32.555Z,72.91
2022-10-06T18:09:00.924Z,72.92
2022-10-06T18:11:43.683Z,73.16
2022-10-06T18:14:17.372Z,73.08
2022-10-06T18:16:58.828Z,73.14
2022-10-06T18:19:33.813Z,73.10
2022-10-06T18:22:03.398Z,73.08
2022-10-06T18:24:31.374Z,73.27
2022-10-06T18:27:00.082Z,73.26
2022-10-06T18:29:33.632Z,73.02
2022-10-06T18:33:44.836Z,73.88
2022-10-06T18:37:34.854Z,73.29
2022-10-06T18:40:05.446Z,73.38
2022-10-06T18:42:31.895Z,73.60
2022-10-06T18:45:16.762Z,73.83
2022-10-06T18:48:01.731Z,74.14
2022-10-06T18:50:28.421Z,73.73
2022-10-06T18:52:56.870Z,73.95
2022-10-06T18:55:23.555Z,74.23
2022-10-06T18:57:50.586Z,74.23
2022-10-06T19:00:17.472Z,74.40
2022-10-06T19:02:48.260Z,74.44
2022-10-06T19:05:17.262Z,74.39
2022-10-06T19:07:44.016Z,74.88
2022-10-06T19:10:11.077Z,74.80
2022-10-06T19:12:37.543Z,75.03
2022-10-06T19:15:04.294Z,74.94
2022-10-06T19:17:30.732Z,75.36
2022-10-06T19:19:57.218Z,75.43
2022-10-06T19:22:26.485Z,75.51
2022-10-06T19:24:53.031Z,75.85
2022-10-06T19:27:24.995Z,75.55
2022-10-06T19:29:54.409Z,76.18
2022-10-06T19:32:26.274Z,76.35
2022-10-06T19:34:54.913Z,76.34
2022-10-06T19:37:21.416Z,76.50
2022-10-06T19:39:50.139Z,76.75
2022-10-06T19:42:37.336Z,76.56
2022-10-06T19:45:06.310Z,76.85
2022-10-06T19:47:32.878Z,77.08
2022-10-06T19:50:03.720Z,77.14
2022-10-06T19:52:32.757Z,77.36
2022-10-06T19:55:00.725Z,77.22
2022-10-06T19:57:29.154Z,77.27
2022-10-06T19:59:55.504Z,77.34
2022-10-06T20:02:23.200Z,77.54
2022-10-06T20:04:50.504Z,77.50
2022-10-06T20:07:17.271Z,77.93
2022-10-06T20:09:44.105Z,78.03
2022-10-06T20:12:10.569Z,78.08
2022-10-06T20:14:37.113Z,77.90
2022-10-06T20:17:03.681Z,78.39
2022-10-06T20:19:31.005Z,78.54
2022-10-06T20:21:57.850Z,78.52
2022-10-06T20:24:24.798Z,78.29
2022-10-06T20:26:52.942Z,79.03
2022-10-06T20:29:26.483Z,78.69
2022-10-06T20:31:55.244Z,79.13
2022-10-06T20:34:31.585Z,79.31
2022-10-06T20:37:00.062Z,79.80
2022-10-06T20:39:45.225Z,79.76
2022-10-06T20:42:15.257Z,80.10
2022-10-06T20:44:43.028Z,80.05
2022-10-06T20:47:11.342Z,80.40
2022-10-06T20:49:37.732Z,79.67
2022-10-06T20:52:05.539Z,79.90
2022-10-06T20:54:35.117Z,80.30
2022-10-06T20:57:04.134Z,80.03
2022-10-06T20:59:31.288Z,80.09
2022-10-06T21:02:00.885Z,80.23
2022-10-06T21:04:27.574Z,79.91
2022-10-06T21:06:54.146Z,80.26
2022-10-06T21:09:20.574Z,80.50
2022-10-06T21:11:47.673Z,80.45
2022-10-06T21:14:14.993Z,80.77
2022-10-06T21:16:43.508Z,81.24
2022-10-06T21:19:14.123Z,81.01
2022-10-06T21:21:42.327Z,81.00
2022-10-06T21:24:09.064Z,81.29
2022-10-06T21:26:36.815Z,81.42
2022-10-06T21:29:03.356Z,81.07
2022-10-06T21:31:30.393Z,81.26
2022-10-06T21:33:56.988Z,81.60
2022-10-06T21:36:25.986Z,81.92
2022-10-06T21:38:55.001Z,81.83
2022-10-06T21:41:30.345Z,82.19
2022-10-06T21:44:04.345Z,82.26
2022-10-06T21:46:36.521Z,82.54
2022-10-06T21:49:06.589Z,82.14
2022-10-06T21:51:33.783Z,82.25
2022-10-06T21:54:01.201Z,82.27
2022-10-06T21:56:30.128Z,82.32
2022-10-06T21:58:57.417Z,82.52
2022-10-06T22:01:33.183Z,82.60
2022-10-06T22:04:00.398Z,82.70
2022-10-06T22:06:29.757Z,82.70
2022-10-06T22:08:57.616Z,83.38
2022-10-06T22:11:27.168Z,83.36
2022-10-06T22:13:56.702Z,83.20
2022-10-06T22:16:24.927Z,83.72
2022-10-06T22:18:52.007Z,83.78
2022-10-06T22:21:27.297Z,83.96
2022-10-06T22:24:02.609Z,83.88
2022-10-06T22:26:30.548Z,84.27
2022-10-06T22:28:58.174Z,84.46
2022-10-06T22:31:26.764Z,84.12
2022-10-06T22:34:00.888Z,84.00
2022-10-06T22:36:28.429Z,84.06
2022-10-06T22:38:55.811Z,84.07
2022-10-06T22:41:22.687Z,83.99
2022-10-06T22:43:52.235Z,84.04
2022-10-06T22:46:18.756Z,84.42
2022-10-06T22:48:45.257Z,84.31
2022-10-06T22:51:11.701Z,84.47
2022-10-06T22:53:38.103Z,84.76
2022-10-06T22:56:04.585Z,84.84
2022-10-06T22:58:31.120Z,85.06
2022-10-06T23:00:57.785Z,85.16
2022-10-06T23:03:24.704Z,85.14
2022-10-06T23:05:59.924Z,85.41
2022-10-06T23:08:30.180Z,85.36
2022-10-06T23:11:10.163Z,85.29
2022-10-06T23:13:37.133Z,85.37
2022-10-06T23:16:07.827Z,85.61
2022-10-06T23:18:37.121Z,85.45
2022-10-06T23:21:09.027Z,85.60
2022-10-06T23:23:35.574Z,85.67
2022-10-06T23:26:11.757Z,85.55
2022-10-06T23:28:38.922Z,85.94
2022-10-06T23:31:08.037Z,86.13
2022-10-06T23:33:35.548Z,86.13
2022-10-06T23:36:05.400Z,86.12
2022-10-06T23:38:31.973Z,85.95
2022-10-06T23:40:58.526Z,86.06
2022-10-06T23:43:24.999Z,85.94
2022-10-06T23:45:51.522Z,86.39
2022-10-06T23:48:18.274Z,86.48
2022-10-06T23:50:58.640Z,86.33
2022-10-06T23:53:25.136Z,86.46
2022-10-06T23:55:51.655Z,86.36
2022-10-06T23:58:19.111Z,86.45
